Buckingham, IL (60917)

5:53 PM CDT on September 02, 2015 (GMT -0500)
Herscher Fire Department | | Change Station
CLOSE
Current Station
Personal Weather Station
Location: Herscher, IL
Elevation: 656 ft
Nearby Weather Stations

Elev 656 ft 41.05 °N, 88.09 °W | Updated 10 minutes ago

Clear
Clear
87.2 °F
Feels Like 92 °F
N
6.0
Wind Variable Wind from SSW
Gusts 9.0 mph

Today
High -- | Low -- °F
--% Chance of Precip.
Yesterday
High -- | Low -- °F
Precip. -- in
6:20 AM 7:23 PM
Waning Gibbous, 76% visible
Pressure 29.98 in
Visibility 10.0 miles
Clouds Clear
Heat Index 92 °F
Dew Point 70 °F
Humidity 56%
Rainfall 0.00 in
Snow Depth Not available.
UV 1 out of 12
Pollen 11.00 out of 12
Air Quality Not available.
Flu Activity Not available.
METAR KIKK 022235Z AUTO 21006KT 10SM CLR 31/22 A2998 RMK AO2 T03080219
Pressure 29.98 in
Visibility 10.0 miles
Clouds Clear
Heat Index 92 °F
Dew Point 70 °F
Humidity 56%
Rainfall 0.00 in
Snow Depth Not available.
UV 1 out of 12
Pollen 11.00 out of 12
Air Quality Not available.
Flu Activity Not available.
METAR KIKK 022235Z AUTO 21006KT 10SM CLR 31/22 A2998 RMK AO2 T03080219

10-Day Weather Forecast

×

Almanac

Astronomy

Sep. 02, 2015 Rise Set
Actual Time
Civil Twilight
Nautical Twilight
Astronomical Twilight
Moon
Length of Visible Light
Length of Day
Tomorrow will be .
, % of the Moon is Illuminated

Today's Extremes

State Highs State Lows

Community

WunderPhotos

Upload Photos

1,851,822 photos uploaded!

WunderBlogs® & News

Nearby

Air Quality

  Air Quality AQ Index Pollutant
Not available.

Snow Depth

Station Depth Elevation

Earthquake Activity

City Distance Mag. Time & Date
Minimum magnitude displayed is 2.5.

Coastal Water Temperatures

Place Temperature

Stations

Nearby Weather Stations

Station Location Temp. Windchill Dew Point Humidity Wind Precip. Elev Updated Type